WAOO

Details ICAO WAOO (BDJ)
Name Banjarmasin Syamsudin Noor
Region Indonesia
Timezone Asia/Makassar (UTC+8.0)
Plans Departing 56
Arriving 73
Stats Elevation 66 ft / 20 m (AMSL)
Location -3.442354° 114.762552°
Runways 1
Magnetic Variation 0.719° E
Sunrise 2017-12-14 22:07:47 UTC / 2017-12-15 06:07:47 Local
Sunset 2017-12-15 10:26:55 UTC / 2017-12-15 18:26:55 Local
Advertisement - Login to hide

Runways

ID Width Length Bearing (true) Bearing (mag) Surface Threshold Offset Overrun Length
10 148 ft / 45 m 8,208 ft / 2,502 m 100.45° 99.73° Asphalt 0 ft / 0 m 200 ft / 61 m
28 148 ft / 45 m 8,208 ft / 2,502 m 280.45° 279.73° Asphalt 0 ft / 0 m 200 ft / 61 m

Approach Navaids

Runway Type Ident Frequency Range Bearing (true) Bearing (mag) Slope Elevation
10 Localiser IBDM 110.70 MHz 18 nm / 33 km 100.49° 99.77° - 66 ft / 20 m (AMSL)
10 Glidescope IBDM 110.70 MHz 10 nm / 19 km 100.45° 99.73° 3.00° 54 ft / 16 m (AMSL)

Map

Weather


0- 5 10 15 20 25 30 35+ Temperature / ° C

Clouds and Precipitation
Forecast for 2017-12-15 12:00 UTC. Updated 2 hours ago

Ground ~20,000 ft ~40,000 ft Winds

METAR

WAOO 151230Z 24004KT 9999 FEW018 28/24 Q1010

TAF

Not found

Frequencies

Recorded 128.05 MHz ATIS
Approach 126.50 MHz BANJARMASIN APP
Tower 118.40 MHz ULIN TWR
Warning: Do not use this data for real-world aviation or navigation. No guarantee of current accuracy is given.